createdAt,value
2023-03-12T00:02:49.446Z,61.85
2023-03-12T00:07:52.903Z,57.56
2023-03-12T00:12:55.659Z,56.19
2023-03-12T00:17:58.181Z,58.74
2023-03-12T00:23:00.704Z,64.91
2023-03-12T00:28:03.173Z,65.74
2023-03-12T00:33:05.624Z,62.68
2023-03-12T00:38:08.464Z,60.23
2023-03-12T00:43:11.368Z,57.29
2023-03-12T00:48:13.914Z,60.28
2023-03-12T00:53:16.422Z,66.36
2023-03-12T00:58:18.987Z,65.53
2023-03-12T01:03:22.412Z,62.91
2023-03-12T01:08:25.564Z,59.38
2023-03-12T01:13:28.399Z,59.05
2023-03-12T01:18:30.894Z,61.08
2023-03-12T01:23:33.454Z,67.67
2023-03-12T01:28:35.943Z,66.89
2023-03-12T01:33:38.435Z,63.22
2023-03-12T01:38:40.861Z,61.11
2023-03-12T01:43:43.595Z,57.48
2023-03-12T01:48:50.203Z,59.00
2023-03-12T01:53:58.006Z,61.30
2023-03-12T01:59:05.760Z,67.33
2023-03-12T02:04:08.799Z,65.66
2023-03-12T02:09:12.639Z,63.23
2023-03-12T02:14:15.344Z,60.80
2023-03-12T02:19:48.722Z,59.07
2023-03-12T02:25:03.814Z,58.04
2023-03-12T02:30:08.208Z,64.90
2023-03-12T02:35:11.904Z,65.34
2023-03-12T02:40:22.980Z,63.06
2023-03-12T02:45:26.009Z,61.26
2023-03-12T02:50:28.851Z,60.10
2023-03-12T02:55:31.999Z,57.12
2023-03-12T03:00:34.742Z,59.20
2023-03-12T03:05:37.739Z,65.02
2023-03-12T03:10:40.289Z,66.87
2023-03-12T03:15:42.798Z,64.13
2023-03-12T03:20:45.307Z,62.41
2023-03-12T03:25:47.777Z,60.54
2023-03-12T03:30:53.907Z,59.36
2023-03-12T03:35:59.395Z,56.98
2023-03-12T03:41:02.710Z,59.40
2023-03-12T03:46:06.300Z,65.07
2023-03-12T03:51:11.082Z,66.23
2023-03-12T03:56:15.666Z,61.99
2023-03-12T04:01:19.369Z,60.72
2023-03-12T04:06:22.438Z,60.47
2023-03-12T04:11:25.809Z,59.57
2023-03-12T04:16:28.534Z,57.13
2023-03-12T04:21:31.180Z,62.91
2023-03-12T04:26:33.698Z,65.20
2023-03-12T04:31:36.255Z,63.44
2023-03-12T04:36:38.923Z,60.94
2023-03-12T04:41:41.398Z,57.58
2023-03-12T04:46:43.936Z,60.13
2023-03-12T04:51:46.586Z,61.64
2023-03-12T04:56:50.131Z,67.07
2023-03-12T05:01:52.832Z,67.95
2023-03-12T05:06:55.923Z,65.22
2023-03-12T05:11:58.912Z,61.93
2023-03-12T05:17:01.498Z,60.53
2023-03-12T05:22:04.062Z,57.49
2023-03-12T05:27:08.284Z,57.35
2023-03-12T05:32:13.353Z,60.71
2023-03-12T05:37:16.031Z,66.07
2023-03-12T05:42:18.572Z,66.12
2023-03-12T05:47:23.141Z,62.96
2023-03-12T05:52:25.645Z,60.51
2023-03-12T05:57:28.202Z,57.34
2023-03-12T06:02:30.770Z,58.54
2023-03-12T06:07:34.527Z,63.28
2023-03-12T06:12:37.037Z,65.22
2023-03-12T06:17:39.626Z,62.37
2023-03-12T06:22:42.506Z,58.68
2023-03-12T06:27:45.030Z,56.63
2023-03-12T06:32:48.722Z,60.60
2023-03-12T06:37:51.335Z,64.65
2023-03-12T06:42:53.958Z,62.53
2023-03-12T06:47:56.436Z,59.55
2023-03-12T06:52:58.916Z,61.06
2023-03-12T06:58:04.219Z,64.59
2023-03-12T07:03:06.910Z,60.83
2023-03-12T07:08:10.152Z,59.05
2023-03-12T07:13:13.357Z,63.40
2023-03-12T07:18:16.109Z,60.59
2023-03-12T07:23:19.184Z,57.86
2023-03-12T07:28:22.873Z,62.08
2023-03-12T07:33:25.792Z,59.59
2023-03-12T07:38:28.633Z,60.62
2023-03-12T07:43:31.611Z,63.84
2023-03-12T07:48:34.374Z,57.44
2023-03-12T07:53:37.052Z,56.42
2023-03-12T07:58:40.105Z,58.66
2023-03-12T08:03:43.232Z,63.74
2023-03-12T08:08:46.704Z,61.65
2023-03-12T08:13:49.851Z,57.95
2023-03-12T08:18:52.729Z,57.59
2023-03-12T08:23:55.243Z,60.67
2023-03-12T08:29:00.174Z,58.23
2023-03-12T08:34:03.142Z,60.06
2023-03-12T08:39:06.496Z,62.27
2023-03-12T08:44:09.032Z,60.29
2023-03-12T08:49:11.876Z,57.16
2023-03-12T08:54:15.048Z,57.27
2023-03-12T08:59:18.570Z,60.96
2023-03-12T09:04:21.263Z,62.03
2023-03-12T09:09:23.990Z,57.64
2023-03-12T09:15:01.962Z,59.05
2023-03-12T09:19:49.489Z,60.53
2023-03-12T09:24:52.118Z,62.19
2023-03-12T09:30:00.479Z,63.08
2023-03-12T09:35:06.751Z,57.57
2023-03-12T09:40:17.857Z,56.74
2023-03-12T09:45:24.682Z,57.42
2023-03-12T09:50:45.853Z,58.04
2023-03-12T09:55:50.338Z,59.76
2023-03-12T10:01:04.320Z,61.18
2023-03-12T10:06:12.935Z,60.84
2023-03-12T10:11:43.596Z,59.03
2023-03-12T10:17:00.320Z,58.84
2023-03-12T10:22:28.735Z,57.20
2023-03-12T10:27:37.005Z,59.62
2023-03-12T10:32:45.814Z,60.27
2023-03-12T10:37:52.017Z,61.97
2023-03-12T10:42:55.513Z,62.45
2023-03-12T10:48:06.274Z,60.32
2023-03-12T10:53:31.810Z,59.52
2023-03-12T10:58:38.035Z,61.05
2023-03-12T11:03:42.114Z,60.91
2023-03-12T11:09:17.095Z,60.87
2023-03-12T11:14:23.060Z,60.65
2023-03-12T11:19:33.225Z,60.65
2023-03-12T11:24:36.019Z,60.25
2023-03-12T11:29:43.466Z,60.55
2023-03-12T11:34:49.923Z,58.17
2023-03-12T11:40:09.767Z,56.94
2023-03-12T11:45:40.794Z,57.98
2023-03-12T11:51:15.484Z,59.33
2023-03-12T11:56:36.202Z,59.09
2023-03-12T12:01:57.531Z,58.01
2023-03-12T12:07:16.105Z,58.04
2023-03-12T12:12:52.556Z,58.32
2023-03-12T12:18:11.173Z,56.55
2023-03-12T12:23:42.722Z,57.01
2023-03-12T12:28:57.118Z,56.75
2023-03-12T12:34:05.434Z,56.95
2023-03-12T12:39:25.557Z,57.19
2023-03-12T12:44:35.704Z,56.85
2023-03-12T12:49:48.772Z,55.89
2023-03-12T12:55:07.532Z,55.26
2023-03-12T13:00:27.386Z,54.35
2023-03-12T13:05:36.114Z,54.66
2023-03-12T13:10:48.939Z,55.59
2023-03-12T13:16:40.068Z,55.82
2023-03-12T13:22:08.830Z,55.90
2023-03-12T13:27:27.337Z,56.81
2023-03-12T13:32:59.418Z,55.47
2023-03-12T13:38:05.774Z,55.52
2023-03-12T13:43:08.234Z,54.57
2023-03-12T13:48:22.010Z,53.91
2023-03-12T13:53:35.637Z,54.84
2023-03-12T13:58:47.988Z,55.12
2023-03-12T14:04:00.299Z,55.50
2023-03-12T14:09:25.161Z,55.48
2023-03-12T14:14:57.644Z,53.82
2023-03-12T14:20:20.771Z,54.04
2023-03-12T14:25:42.598Z,52.48
2023-03-12T14:31:17.261Z,52.57
2023-03-12T14:36:22.913Z,53.57
2023-03-12T14:41:41.817Z,52.40
2023-03-12T14:46:57.047Z,51.73
2023-03-12T14:51:59.758Z,50.92
2023-03-12T14:57:02.403Z,52.33
2023-03-12T15:02:14.571Z,51.29
2023-03-12T15:07:23.857Z,52.32
2023-03-12T15:12:31.960Z,52.50
2023-03-12T15:17:35.447Z,52.76
2023-03-12T15:22:38.608Z,52.10
2023-03-12T15:27:41.350Z,51.65
2023-03-12T15:33:11.334Z,53.08
2023-03-12T15:38:16.596Z,53.12
2023-03-12T15:43:22.713Z,52.82
2023-03-12T15:48:41.152Z,52.43
2023-03-12T15:53:43.688Z,52.82
2023-03-12T15:58:46.729Z,52.55
2023-03-12T16:03:49.688Z,52.55
2023-03-12T16:08:59.691Z,52.64
2023-03-12T16:14:24.684Z,52.91
2023-03-12T16:19:29.601Z,52.98
2023-03-12T16:24:32.194Z,53.16
2023-03-12T16:29:38.202Z,53.14
2023-03-12T16:34:41.459Z,53.24
2023-03-12T16:39:46.256Z,53.49
2023-03-12T16:44:48.966Z,53.61
2023-03-12T16:49:51.700Z,53.68
2023-03-12T16:54:54.327Z,54.24
2023-03-12T16:59:57.547Z,54.59
2023-03-12T17:05:00.344Z,54.37
2023-03-12T17:10:03.215Z,54.76
2023-03-12T17:15:16.577Z,54.89
2023-03-12T17:20:21.432Z,56.06
2023-03-12T17:25:25.838Z,56.15
2023-03-12T17:30:30.498Z,56.86
2023-03-12T17:35:33.723Z,56.52
2023-03-12T17:40:40.728Z,56.87
2023-03-12T17:45:43.401Z,56.86
2023-03-12T17:50:45.938Z,56.99
2023-03-12T17:55:48.476Z,57.10
2023-03-12T18:00:51.229Z,57.62
2023-03-12T18:05:53.838Z,57.44
2023-03-12T18:10:56.818Z,57.26
2023-03-12T18:15:59.848Z,57.34
2023-03-12T18:21:02.731Z,57.20
2023-03-12T18:26:05.700Z,57.24
2023-03-12T18:31:08.815Z,57.93
2023-03-12T18:36:11.425Z,58.24
2023-03-12T18:41:14.557Z,58.29
2023-03-12T18:46:18.996Z,58.31
2023-03-12T18:51:22.085Z,58.53
2023-03-12T18:56:25.153Z,58.82
2023-03-12T19:01:27.786Z,58.96
2023-03-12T19:06:40.793Z,59.15
2023-03-12T19:11:50.877Z,59.51
2023-03-12T19:16:53.724Z,59.88
2023-03-12T19:21:57.298Z,60.08
2023-03-12T19:26:59.750Z,60.49
2023-03-12T19:32:02.382Z,60.64
2023-03-12T19:37:04.880Z,61.03
2023-03-12T19:42:07.408Z,61.33
2023-03-12T19:47:10.104Z,61.60
2023-03-12T19:52:12.603Z,67.22
2023-03-12T19:57:15.078Z,71.78
2023-03-12T20:02:18.003Z,65.94
2023-03-12T20:07:20.572Z,61.59
2023-03-12T20:12:23.077Z,55.39
2023-03-12T20:17:25.588Z,53.03
2023-03-12T20:22:28.046Z,54.85
2023-03-12T20:27:31.106Z,55.80
2023-03-12T20:32:34.106Z,57.24
2023-03-12T20:37:36.910Z,59.00
2023-03-12T20:42:40.668Z,59.56
2023-03-12T20:47:43.231Z,60.32
2023-03-12T20:52:45.712Z,60.76
2023-03-12T20:57:48.385Z,61.65
2023-03-12T21:02:50.944Z,65.90
2023-03-12T21:07:53.909Z,69.71
2023-03-12T21:12:57.445Z,60.25
2023-03-12T21:17:59.930Z,56.29
2023-03-12T21:23:02.474Z,58.34
2023-03-12T21:28:07.279Z,60.89
2023-03-12T21:33:09.804Z,61.89
2023-03-12T21:38:12.361Z,64.13
2023-03-12T21:43:14.830Z,60.17
2023-03-12T21:48:17.310Z,57.13
2023-03-12T21:53:23.764Z,59.36
2023-03-12T21:58:27.501Z,60.97
2023-03-12T22:03:30.211Z,61.56
2023-03-12T22:08:33.744Z,62.74
2023-03-12T22:13:36.655Z,65.60
2023-03-12T22:18:41.570Z,68.97
2023-03-12T22:23:44.145Z,64.48
2023-03-12T22:28:52.429Z,54.78
2023-03-12T22:33:56.578Z,52.12
2023-03-12T22:38:59.067Z,52.75
2023-03-12T22:44:07.233Z,53.55
2023-03-12T22:49:09.693Z,54.51
2023-03-12T22:54:12.169Z,55.56
2023-03-12T22:59:14.655Z,56.34
2023-03-12T23:04:17.114Z,57.09
2023-03-12T23:09:19.999Z,57.87
2023-03-12T23:14:22.790Z,58.68
2023-03-12T23:19:26.074Z,59.11
2023-03-12T23:24:31.624Z,59.84
2023-03-12T23:29:35.062Z,60.71
2023-03-12T23:34:37.590Z,64.40
2023-03-12T23:39:53.458Z,70.52
2023-03-12T23:44:56.731Z,67.36
2023-03-12T23:49:59.296Z,62.58
2023-03-12T23:55:01.758Z,61.17
